Time;durP1;ratioP1;P1;durP2;ratioP2;P2;SDS_P1;SDS_P2;PMS_P1;PMS_P2;Temp;Humidity;BMP_temperature;BMP_pressure;BME280_temperature;BME280_humidity;BME280_pressure;Samples;Min_cycle;Max_cycle;Signal;HPM_P1;HPM_P2
2023/09/11 00:00:15;;;;;;;19.23;17.13;;;17.90;99.90;;;;;;2091708;28;20082;-71
2023/09/11 00:01:17;;;;;;;18.75;16.60;;;17.90;99.90;;;;;;2091139;28;20106;-71
2023/09/11 00:02:18;;;;;;;18.60;16.60;;;17.90;99.90;;;;;;2083902;28;20189;-71
2023/09/11 00:03:19;;;;;;;20.20;16.90;;;17.80;99.90;;;;;;2083575;28;20063;-71
2023/09/11 00:04:21;;;;;;;19.13;16.15;;;17.80;99.90;;;;;;2093987;28;20036;-71
2023/09/11 00:05:22;;;;;;;19.35;16.63;;;17.80;99.90;;;;;;2094400;28;20590;-73
2023/09/11 00:06:23;;;;;;;20.35;16.83;;;17.80;99.90;;;;;;2083540;28;20037;-71
2023/09/11 00:07:24;;;;;;;21.42;17.15;;;17.80;99.90;;;;;;2096882;28;20058;-72
2023/09/11 00:08:25;;;;;;;19.35;16.73;;;17.80;99.90;;;;;;2093969;28;20052;-71
2023/09/11 00:09:25;;;;;;;21.48;16.92;;;17.80;99.90;;;;;;2091979;28;20111;-72
2023/09/11 00:10:26;;;;;;;22.20;17.13;;;17.80;99.90;;;;;;2095169;28;20035;-71
2023/09/11 00:11:26;;;;;;;20.05;17.70;;;17.70;99.90;;;;;;2093960;28;20032;-71
2023/09/11 00:12:27;;;;;;;24.58;17.65;;;17.70;99.90;;;;;;2094084;28;20021;-70
2023/09/11 00:13:28;;;;;;;19.70;16.95;;;17.70;99.90;;;;;;2090603;28;20476;-71
2023/09/11 00:14:28;;;;;;;19.70;16.92;;;17.70;99.90;;;;;;2094831;28;20119;-72
2023/09/11 00:15:32;;;;;;;21.13;17.05;;;17.70;99.90;;;;;;2094895;28;20036;-71
2023/09/11 00:16:33;;;;;;;20.95;17.60;;;17.70;99.90;;;;;;2093241;28;20087;-70
2023/09/11 00:17:33;;;;;;;19.98;16.92;;;17.60;99.90;;;;;;2094167;28;20035;-70
2023/09/11 00:18:34;;;;;;;23.92;16.88;;;17.60;99.90;;;;;;2096441;28;20036;-72
2023/09/11 00:19:35;;;;;;;18.52;15.85;;;17.60;99.90;;;;;;2094066;28;20024;-73
2023/09/11 00:20:35;;;;;;;20.25;17.08;;;17.60;99.90;;;;;;2087840;28;20036;-72
2023/09/11 00:21:36;;;;;;;18.48;16.48;;;17.60;99.90;;;;;;2096088;28;20048;-72
2023/09/11 00:22:37;;;;;;;18.92;16.90;;;17.60;99.90;;;;;;2093144;28;20191;-73
2023/09/11 00:23:37;;;;;;;20.50;17.02;;;17.60;99.90;;;;;;2092821;28;20024;-72
2023/09/11 00:24:38;;;;;;;19.08;17.08;;;17.60;99.90;;;;;;2093293;28;20029;-72
2023/09/11 00:25:39;;;;;;;19.42;16.95;;;17.50;99.90;;;;;;2096005;28;20020;-70
2023/09/11 00:26:39;;;;;;;19.90;17.25;;;17.60;99.90;;;;;;2086504;28;20158;-70
2023/09/11 00:27:40;;;;;;;20.27;17.30;;;17.60;99.90;;;;;;2094284;28;20032;-70
2023/09/11 00:28:41;;;;;;;18.27;16.33;;;17.60;99.90;;;;;;2094482;28;20024;-70
2023/09/11 00:29:41;;;;;;;19.73;17.58;;;17.50;99.90;;;;;;2089618;28;20474;-70
2023/09/11 00:30:42;;;;;;;24.35;17.20;;;17.50;99.90;;;;;;2094013;28;20044;-73
2023/09/11 00:31:43;;;;;;;21.42;16.88;;;17.50;99.90;;;;;;2095915;28;20114;-72
2023/09/11 00:32:43;;;;;;;18.60;16.52;;;17.50;99.90;;;;;;2090596;28;20522;-72
2023/09/11 00:33:44;;;;;;;20.05;16.48;;;17.40;99.90;;;;;;2094483;28;20128;-70
2023/09/11 00:34:44;;;;;;;18.35;16.05;;;17.50;99.90;;;;;;2095782;28;20039;-70
2023/09/11 00:35:45;;;;;;;20.60;16.88;;;17.40;99.90;;;;;;2088915;28;20105;-70
2023/09/11 00:36:46;;;;;;;18.83;16.70;;;17.40;99.90;;;;;;2086382;28;20017;-71
2023/09/11 00:37:46;;;;;;;20.70;16.63;;;17.40;99.90;;;;;;2093369;28;20086;-70
2023/09/11 00:38:49;;;;;;;21.45;17.08;;;17.40;99.90;;;;;;2091762;28;20070;-71
2023/09/11 00:39:50;;;;;;;21.42;16.30;;;17.40;99.90;;;;;;2093329;28;20020;-70
2023/09/11 00:40:52;;;;;;;17.73;15.82;;;17.40;99.90;;;;;;2095066;28;20047;-71
2023/09/11 00:41:52;;;;;;;18.10;16.20;;;17.40;99.90;;;;;;2091452;28;20017;-71
2023/09/11 00:42:53;;;;;;;19.27;16.58;;;17.30;99.90;;;;;;2089161;28;20039;-71
2023/09/11 00:43:54;;;;;;;18.98;16.48;;;17.40;99.90;;;;;;2091457;28;20028;-71
2023/09/11 00:44:54;;;;;;;20.08;16.30;;;17.40;99.90;;;;;;2092200;28;20108;-71
2023/09/11 00:45:56;;;;;;;19.95;16.83;;;17.30;99.90;;;;;;2091673;28;20029;-70
2023/09/11 00:46:58;;;;;;;18.80;16.73;;;17.30;99.90;;;;;;2086211;28;20486;-70
2023/09/11 00:47:59;;;;;;;19.63;16.60;;;17.30;99.90;;;;;;2092480;28;20460;-71
2023/09/11 00:49:00;;;;;;;20.30;16.77;;;17.30;99.90;;;;;;2087497;28;20027;-70
2023/09/11 00:50:02;;;;;;;20.17;17.10;;;17.30;99.90;;;;;;2087256;28;20025;-71
2023/09/11 00:51:03;;;;;;;20.17;17.08;;;17.30;99.90;;;;;;2093205;28;20083;-70
2023/09/11 00:52:04;;;;;;;18.88;16.27;;;17.30;99.90;;;;;;2094399;28;20031;-71
2023/09/11 00:53:06;;;;;;;18.90;16.88;;;17.30;99.90;;;;;;2092802;28;20107;-70
2023/09/11 00:54:08;;;;;;;21.00;17.27;;;17.20;99.90;;;;;;2092648;28;20025;-70
2023/09/11 00:55:09;;;;;;;18.88;16.38;;;17.20;99.90;;;;;;2096237;28;20036;-71
2023/09/11 00:56:10;;;;;;;19.95;17.00;;;17.20;99.90;;;;;;2087868;28;20131;-71
2023/09/11 00:57:11;;;;;;;21.55;16.98;;;17.20;99.90;;;;;;2083184;28;20025;-70
2023/09/11 00:58:15;;;;;;;21.05;17.40;;;17.20;99.90;;;;;;2092562;28;20024;-70
2023/09/11 00:59:17;;;;;;;20.85;16.35;;;17.20;99.90;;;;;;2087153;28;20431;-71
2023/09/11 01:00:19;;;;;;;19.80;16.83;;;17.20;99.90;;;;;;2087335;28;20075;-72
2023/09/11 01:01:22;;;;;;;19.15;16.67;;;17.20;99.90;;;;;;2083974;28;20223;-72
2023/09/11 01:02:23;;;;;;;19.08;16.73;;;17.20;99.90;;;;;;2093357;28;20055;-75
2023/09/11 01:03:24;;;;;;;20.77;17.55;;;17.20;99.90;;;;;;2094128;28;20024;-81
2023/09/11 01:04:26;;;;;;;19.20;16.85;;;17.20;99.90;;;;;;2078400;28;20033;-81
2023/09/11 01:05:29;;;;;;;18.58;16.17;;;17.20;99.90;;;;;;2087046;28;20137;-83
2023/09/11 01:06:30;;;;;;;19.05;16.88;;;17.10;99.90;;;;;;2077445;28;20480;-82
2023/09/11 01:07:32;;;;;;;20.13;16.90;;;17.10;99.90;;;;;;2069889;28;20042;-83
2023/09/11 01:08:33;;;;;;;18.52;16.13;;;17.10;99.90;;;;;;2083951;28;20047;-83
2023/09/11 01:09:34;;;;;;;18.23;16.33;;;17.10;99.90;;;;;;2076872;28;20032;-82
2023/09/11 01:10:35;;;;;;;19.45;16.60;;;17.10;99.90;;;;;;2076052;28;20025;-82
2023/09/11 01:11:36;;;;;;;19.95;16.88;;;17.10;99.90;;;;;;2079616;28;20526;-82
2023/09/11 01:12:38;;;;;;;19.15;16.88;;;17.10;99.90;;;;;;2095063;28;20020;-81
2023/09/11 01:13:39;;;;;;;20.25;17.33;;;17.10;99.90;;;;;;2088946;28;20021;-80
2023/09/11 01:14:39;;;;;;;18.80;16.80;;;17.00;99.90;;;;;;2094483;28;20035;-81
2023/09/11 01:15:58;;;;;;;21.17;17.10;;;17.10;99.90;;;;;;2092359;28;20028;-81
2023/09/11 01:17:17;;;;;;;21.10;17.83;;;17.10;99.90;;;;;;2086854;28;20179;-82
2023/09/11 01:18:29;;;;;;;21.10;17.60;;;17.10;99.90;;;;;;2082905;28;20024;-82
2023/09/11 01:19:52;;;;;;;20.60;17.73;;;17.10;99.90;;;;;;2081512;28;20037;-82
2023/09/11 01:21:22;;;;;;;18.98;16.88;;;17.00;99.90;;;;;;2089513;28;20028;-81
2023/09/11 01:23:00;;;;;;;21.98;17.95;;;17.10;99.90;;;;;;2083129;28;20507;-81
2023/09/11 01:24:31;;;;;;;21.80;17.73;;;17.10;99.90;;;;;;2091323;28;20020;-81
2023/09/11 01:25:43;;;;;;;20.05;17.55;;;17.10;99.90;;;;;;2087219;28;21012;-81
2023/09/11 01:26:57;;;;;;;20.13;17.27;;;17.10;99.90;;;;;;2089341;28;20043;-81
2023/09/11 01:28:15;;;;;;;20.27;17.73;;;17.00;99.90;;;;;;2090033;28;20509;-81
2023/09/11 01:29:23;;;;;;;21.25;17.58;;;17.00;99.90;;;;;;2089883;28;20622;-80
2023/09/11 01:30:25;;;;;;;24.50;18.98;;;17.00;99.90;;;;;;2090467;28;20136;-80
2023/09/11 01:31:26;;;;;;;22.65;18.02;;;17.00;99.90;;;;;;2091013;28;20442;-80
2023/09/11 01:32:28;;;;;;;21.70;17.88;;;17.00;99.90;;;;;;2091704;28;20059;-80
2023/09/11 01:33:29;;;;;;;21.30;18.50;;;17.00;99.90;;;;;;2092488;28;20491;-80
2023/09/11 01:34:30;;;;;;;20.90;18.10;;;16.90;99.90;;;;;;2093550;28;20024;-81
2023/09/11 01:35:31;;;;;;;22.10;17.95;;;16.90;99.90;;;;;;2091653;28;20035;-81
2023/09/11 01:36:31;;;;;;;20.35;17.58;;;16.90;99.90;;;;;;2087827;28;20723;-80
2023/09/11 01:37:32;;;;;;;22.23;17.92;;;16.90;99.90;;;;;;2091595;28;20067;-82
2023/09/11 01:38:33;;;;;;;20.10;17.75;;;16.90;99.90;;;;;;2093930;28;20327;-82
2023/09/11 01:39:33;;;;;;;20.75;18.55;;;16.90;99.90;;;;;;2089547;28;20108;-81
2023/09/11 01:40:36;;;;;;;21.90;17.88;;;16.90;99.90;;;;;;2091426;28;20029;-81
2023/09/11 01:41:43;;;;;;;20.67;18.45;;;16.90;99.90;;;;;;2094776;28;20095;-82
2023/09/11 01:42:49;;;;;;;20.75;17.85;;;16.90;99.90;;;;;;2086175;28;20045;-81
2023/09/11 01:43:51;;;;;;;21.92;18.38;;;16.90;99.90;;;;;;2093582;28;20044;-82
2023/09/11 01:44:54;;;;;;;21.92;18.33;;;16.90;99.90;;;;;;2095337;28;20025;-82
2023/09/11 01:45:55;;;;;;;21.50;17.73;;;16.90;99.90;;;;;;2085733;28;20357;-82
2023/09/11 01:46:57;;;;;;;19.83;17.38;;;16.90;99.90;;;;;;2087859;28;20120;-81
2023/09/11 01:48:00;;;;;;;19.75;17.65;;;16.90;99.90;;;;;;2085948;28;20032;-81
2023/09/11 01:49:02;;;;;;;19.50;17.13;;;16.80;99.90;;;;;;2089974;28;20127;-81
2023/09/11 01:50:05;;;;;;;20.08;17.35;;;16.80;99.90;;;;;;2093487;28;20142;-81
2023/09/11 01:51:07;;;;;;;20.50;17.92;;;16.80;99.90;;;;;;2093502;28;20024;-82
2023/09/11 01:52:10;;;;;;;20.35;17.52;;;16.80;99.90;;;;;;2087025;28;20403;-82
2023/09/11 01:53:11;;;;;;;19.60;17.50;;;16.80;99.90;;;;;;2095082;28;20049;-80
2023/09/11 01:54:12;;;;;;;20.05;17.42;;;16.80;99.90;;;;;;2092746;28;20052;-79
2023/09/11 01:55:13;;;;;;;21.33;17.67;;;16.80;99.90;;;;;;2079697;28;20231;-80
2023/09/11 01:56:14;;;;;;;20.48;17.83;;;16.70;99.90;;;;;;2076247;28;20034;-81
2023/09/11 01:57:15;;;;;;;19.65;17.55;;;16.70;99.90;;;;;;2087544;28;20730;-72
2023/09/11 01:58:16;;;;;;;21.10;17.17;;;16.70;99.90;;;;;;2072149;28;20049;-72
2023/09/11 01:59:17;;;;;;;19.48;16.58;;;16.70;99.90;;;;;;2082737;28;20033;-72
2023/09/11 02:00:17;;;;;;;20.88;17.52;;;16.70;99.90;;;;;;2083576;28;20491;-72
2023/09/11 02:01:18;;;;;;;19.73;17.63;;;16.60;99.90;;;;;;2085227;28;20043;-72
2023/09/11 02:02:19;;;;;;;20.63;17.00;;;16.60;99.90;;;;;;2090606;28;20021;-72
2023/09/11 02:03:19;;;;;;;18.80;16.80;;;16.60;99.90;;;;;;2094255;28;20031;-72
2023/09/11 02:04:20;;;;;;;20.75;17.25;;;16.60;99.90;;;;;;2090686;28;20066;-73
2023/09/11 02:05:21;;;;;;;19.42;16.75;;;16.60;99.90;;;;;;2089831;28;20464;-72
2023/09/11 02:06:21;;;;;;;19.88;17.17;;;16.60;99.90;;;;;;2080033;28;20044;-73
2023/09/11 02:07:22;;;;;;;20.08;17.48;;;16.50;99.90;;;;;;2091692;28;20027;-72
2023/09/11 02:08:23;;;;;;;18.95;16.75;;;16.60;99.90;;;;;;2092993;28;20036;-70
2023/09/11 02:09:23;;;;;;;20.67;18.20;;;16.60;99.90;;;;;;2080411;28;20029;-71
2023/09/11 02:10:24;;;;;;;19.42;17.20;;;16.50;99.90;;;;;;2080658;28;20185;-70
2023/09/11 02:11:24;;;;;;;20.48;17.20;;;16.50;99.90;;;;;;2084376;28;20385;-70
2023/09/11 02:12:25;;;;;;;22.77;17.08;;;16.50;99.90;;;;;;2089149;28;20037;-71
2023/09/11 02:13:26;;;;;;;20.25;17.92;;;16.50;99.90;;;;;;2088582;28;20028;-71
2023/09/11 02:14:28;;;;;;;19.50;17.40;;;16.50;99.90;;;;;;2076542;28;20403;-70
2023/09/11 02:15:28;;;;;;;20.70;17.63;;;16.50;99.90;;;;;;2081386;28;20037;-70
2023/09/11 02:16:29;;;;;;;20.08;17.85;;;16.50;99.90;;;;;;2087610;28;20087;-71
2023/09/11 02:17:29;;;;;;;21.20;17.48;;;16.50;99.90;;;;;;2085259;28;20525;-71
2023/09/11 02:18:30;;;;;;;22.00;18.58;;;16.50;99.90;;;;;;2081441;28;20564;-71
2023/09/11 02:19:32;;;;;;;22.05;18.13;;;16.50;99.90;;;;;;2101853;28;20475;-70
2023/09/11 02:20:32;;;;;;;23.25;18.67;;;16.50;99.90;;;;;;2103421;28;20034;-71
2023/09/11 02:21:33;;;;;;;20.42;18.05;;;16.50;99.90;;;;;;2090829;28;20612;-71
2023/09/11 02:22:33;;;;;;;20.33;18.02;;;16.50;99.90;;;;;;2085634;28;20033;-70
2023/09/11 02:23:34;;;;;;;21.63;18.70;;;16.50;99.90;;;;;;2093830;28;20467;-69
2023/09/11 02:24:34;;;;;;;21.38;18.60;;;16.50;99.90;;;;;;2085656;28;20207;-69
2023/09/11 02:25:35;;;;;;;22.50;18.90;;;16.40;99.90;;;;;;2085694;28;20245;-69
2023/09/11 02:26:36;;;;;;;22.00;18.05;;;16.40;99.90;;;;;;2084571;28;20036;-69
2023/09/11 02:27:36;;;;;;;20.70;18.20;;;16.50;99.90;;;;;;2094458;28;20281;-70
2023/09/11 02:28:37;;;;;;;22.42;18.58;;;16.40;99.90;;;;;;2094121;28;20032;-70
2023/09/11 02:29:38;;;;;;;27.65;18.55;;;16.40;99.90;;;;;;2084877;28;20035;-69
2023/09/11 02:30:38;;;;;;;19.92;17.75;;;16.40;99.90;;;;;;2083870;28;20024;-70
2023/09/11 02:31:39;;;;;;;20.42;18.23;;;16.40;99.90;;;;;;2084069;28;20083;-72
2023/09/11 02:32:39;;;;;;;21.40;18.63;;;16.40;99.90;;;;;;2089522;28;20035;-72
2023/09/11 02:33:40;;;;;;;20.63;18.17;;;16.40;99.90;;;;;;2084435;28;20052;-72
2023/09/11 02:34:40;;;;;;;21.77;18.67;;;16.40;99.90;;;;;;2090853;28;20044;-70
2023/09/11 02:35:41;;;;;;;20.73;18.05;;;16.40;99.90;;;;;;2090716;28;20024;-70
2023/09/11 02:36:42;;;;;;;22.20;18.95;;;16.40;99.90;;;;;;2084048;28;20611;-70
2023/09/11 02:37:42;;;;;;;21.15;18.48;;;16.40;99.90;;;;;;2083155;28;20017;-70
2023/09/11 02:38:43;;;;;;;21.75;18.20;;;16.40;99.90;;;;;;2087527;28;20029;-70
2023/09/11 02:39:44;;;;;;;20.75;18.52;;;16.40;99.90;;;;;;2087360;28;20035;-70
2023/09/11 02:40:45;;;;;;;21.35;18.63;;;16.40;99.90;;;;;;2075398;28;20078;-70
2023/09/11 02:41:45;;;;;;;20.88;18.50;;;16.40;99.90;;;;;;2095474;28;20028;-69
2023/09/11 02:42:46;;;;;;;20.88;18.60;;;16.40;99.90;;;;;;2087791;28;20052;-70
2023/09/11 02:43:46;;;;;;;21.30;18.50;;;16.40;99.90;;;;;;2090915;28;20041;-70
2023/09/11 02:44:47;;;;;;;20.52;18.23;;;16.40;99.90;;;;;;2086030;28;20218;-70
2023/09/11 02:45:48;;;;;;;20.38;18.17;;;16.30;99.90;;;;;;2094845;28;20028;-70
2023/09/11 02:46:48;;;;;;;21.58;18.15;;;16.30;99.90;;;;;;2090846;28;20016;-70
2023/09/11 02:47:49;;;;;;;21.10;18.88;;;16.30;99.90;;;;;;2067651;28;20555;-70
2023/09/11 02:48:49;;;;;;;23.23;19.80;;;16.30;99.90;;;;;;2079206;28;20044;-70
2023/09/11 02:49:50;;;;;;;22.52;18.95;;;16.30;99.90;;;;;;2087101;28;20024;-70
2023/09/11 02:50:50;;;;;;;21.88;19.40;;;16.30;99.90;;;;;;2093177;28;20031;-70
2023/09/11 02:51:51;;;;;;;22.90;18.98;;;16.30;99.90;;;;;;2090776;28;20076;-70
2023/09/11 02:52:52;;;;;;;22.05;19.65;;;16.30;99.90;;;;;;2095096;28;20023;-70
2023/09/11 02:53:52;;;;;;;22.33;19.60;;;16.30;99.90;;;;;;2100213;28;20032;-70
2023/09/11 02:54:53;;;;;;;22.00;19.42;;;16.30;99.90;;;;;;2094289;28;20024;-70
2023/09/11 02:55:53;;;;;;;22.00;19.20;;;16.30;99.90;;;;;;2091454;28;20147;-69
2023/09/11 02:56:54;;;;;;;21.88;19.60;;;16.30;99.90;;;;;;2085972;28;20139;-70
2023/09/11 02:57:55;;;;;;;21.38;18.45;;;16.30;99.90;;;;;;2089543;28;20480;-71
2023/09/11 02:58:56;;;;;;;20.63;18.42;;;16.30;99.90;;;;;;2086890;28;20561;-70
2023/09/11 02:59:56;;;;;;;20.77;18.55;;;16.30;99.90;;;;;;2077808;28;20030;-70
2023/09/11 03:01:02;;;;;;;21.20;17.98;;;16.30;99.90;;;;;;2088517;28;20155;-69
2023/09/11 03:02:02;;;;;;;19.90;17.75;;;16.20;99.90;;;;;;2092333;28;20175;-71
2023/09/11 03:03:05;;;;;;;22.65;18.17;;;16.20;99.90;;;;;;2091614;28;20564;-72
2023/09/11 03:04:06;;;;;;;20.13;17.92;;;16.20;99.90;;;;;;2080618;28;20112;-71
2023/09/11 03:05:07;;;;;;;22.02;18.55;;;16.20;99.90;;;;;;2085339;28;20021;-70
2023/09/11 03:06:08;;;;;;;20.40;18.20;;;16.10;99.90;;;;;;2084736;28;20024;-70
2023/09/11 03:07:09;;;;;;;20.45;18.23;;;16.10;99.90;;;;;;2083789;28;20098;-70
2023/09/11 03:08:11;;;;;;;22.23;19.08;;;16.10;99.90;;;;;;2091096;28;20025;-70
2023/09/11 03:09:12;;;;;;;21.40;18.40;;;16.10;99.90;;;;;;2090222;28;20038;-71
2023/09/11 03:10:13;;;;;;;20.58;18.33;;;16.00;99.90;;;;;;2084689;28;20555;-70
2023/09/11 03:11:13;;;;;;;21.13;18.55;;;16.00;99.90;;;;;;2090930;28;20452;-71
2023/09/11 03:12:14;;;;;;;20.08;17.98;;;16.00;99.90;;;;;;2082189;28;20452;-70
2023/09/11 03:13:15;;;;;;;20.70;18.27;;;16.00;99.90;;;;;;2075220;28;20060;-70
2023/09/11 03:14:17;;;;;;;21.05;17.98;;;16.00;99.90;;;;;;2091060;28;20028;-71
2023/09/11 03:15:17;;;;;;;25.58;19.35;;;16.00;99.90;;;;;;2082728;28;20036;-70
2023/09/11 03:16:18;;;;;;;21.13;18.63;;;15.90;99.90;;;;;;2091049;28;20467;-70
2023/09/11 03:17:26;;;;;;;23.55;18.52;;;15.90;99.90;;;;;;2081564;28;20029;-71
2023/09/11 03:18:26;;;;;;;20.40;18.20;;;16.00;99.90;;;;;;2088267;28;20524;-70
2023/09/11 03:19:27;;;;;;;21.95;18.80;;;15.90;99.90;;;;;;2091849;28;20048;-70
2023/09/11 03:20:27;;;;;;;20.88;18.35;;;15.90;99.90;;;;;;2085735;28;20051;-71
2023/09/11 03:21:28;;;;;;;23.02;18.42;;;15.90;99.90;;;;;;2088152;28;20507;-70
2023/09/11 03:22:29;;;;;;;21.38;18.77;;;15.90;99.90;;;;;;2084269;28;20074;-70
2023/09/11 03:23:30;;;;;;;22.65;19.27;;;15.90;99.90;;;;;;2088697;28;20072;-70
2023/09/11 03:24:31;;;;;;;21.23;18.10;;;15.90;99.90;;;;;;2089085;28;20065;-71
2023/09/11 03:25:34;;;;;;;23.92;19.33;;;15.80;99.90;;;;;;2084589;28;20025;-70
2023/09/11 03:26:36;;;;;;;21.00;18.15;;;15.80;99.90;;;;;;2087288;28;20243;-71
2023/09/11 03:27:37;;;;;;;21.33;18.83;;;15.80;99.90;;;;;;2084448;28;20123;-70
2023/09/11 03:28:38;;;;;;;22.73;19.10;;;15.80;99.90;;;;;;2086460;28;20443;-70
2023/09/11 03:29:39;;;;;;;21.23;18.73;;;15.90;99.90;;;;;;2088135;28;20033;-71
2023/09/11 03:30:39;;;;;;;21.50;18.92;;;15.80;99.90;;;;;;2089578;28;20024;-71
2023/09/11 03:31:40;;;;;;;22.17;18.60;;;15.80;99.90;;;;;;2078779;28;20108;-70
2023/09/11 03:32:40;;;;;;;22.58;19.52;;;15.80;99.90;;;;;;2075439;28;20127;-72
2023/09/11 03:33:41;;;;;;;22.23;19.10;;;15.80;99.90;;;;;;2076897;28;20167;-71
2023/09/11 03:34:42;;;;;;;22.75;19.30;;;15.70;99.90;;;;;;2085291;28;20036;-71
2023/09/11 03:35:46;;;;;;;22.38;18.73;;;15.70;99.90;;;;;;2079425;28;20029;-70
2023/09/11 03:36:47;;;;;;;21.90;18.83;;;15.80;99.90;;;;;;2086686;28;20567;-71
2023/09/11 03:37:47;;;;;;;22.40;19.63;;;15.80;99.90;;;;;;2094537;28;20031;-71
2023/09/11 03:38:49;;;;;;;23.10;18.50;;;15.70;99.90;;;;;;2086347;28;20021;-71
2023/09/11 03:39:50;;;;;;;20.88;18.50;;;15.70;99.90;;;;;;2086146;28;20251;-71
2023/09/11 03:40:51;;;;;;;21.67;19.08;;;15.80;99.90;;;;;;2083435;28;20017;-71
2023/09/11 03:41:51;;;;;;;21.73;18.85;;;15.70;99.90;;;;;;2087846;28;20024;-71
2023/09/11 03:42:52;;;;;;;20.40;18.20;;;15.70;99.90;;;;;;2086483;28;20527;-71
2023/09/11 03:43:52;;;;;;;22.02;18.40;;;15.80;99.90;;;;;;2078599;28;20056;-71
2023/09/11 03:44:54;;;;;;;24.80;19.00;;;15.80;99.90;;;;;;2075751;28;20028;-71
2023/09/11 03:45:54;;;;;;;22.40;18.40;;;15.70;99.90;;;;;;2089164;28;20044;-71
2023/09/11 03:46:55;;;;;;;23.10;18.85;;;15.80;99.90;;;;;;2087624;28;20035;-71
2023/09/11 03:47:56;;;;;;;20.75;18.40;;;15.70;99.90;;;;;;2091076;28;20051;-71
2023/09/11 03:48:56;;;;;;;25.52;18.98;;;15.70;99.90;;;;;;2076782;28;20025;-71
2023/09/11 03:49:57;;;;;;;21.58;18.95;;;15.70;99.90;;;;;;2090273;28;20395;-72
2023/09/11 03:50:58;;;;;;;23.35;19.23;;;15.70;99.90;;;;;;2090209;28;20029;-71
2023/09/11 03:51:58;;;;;;;22.75;19.65;;;15.70;99.90;;;;;;2092153;28;20518;-72
2023/09/11 03:52:59;;;;;;;22.05;19.33;;;15.70;99.90;;;;;;2087991;28;20529;-71
2023/09/11 03:54:05;;;;;;;22.77;18.92;;;15.70;99.90;;;;;;2091807;28;20564;-71
2023/09/11 03:55:06;;;;;;;21.40;18.77;;;15.80;99.90;;;;;;2087393;28;20511;-72
2023/09/11 03:56:06;;;;;;;24.45;19.50;;;15.70;99.90;;;;;;2092571;28;20149;-72
2023/09/11 03:57:07;;;;;;;21.83;19.02;;;15.70;99.90;;;;;;2092155;28;20028;-73
2023/09/11 03:58:07;;;;;;;25.05;18.75;;;15.60;99.90;;;;;;2085369;28;20627;-71
2023/09/11 03:59:08;;;;;;;22.52;19.05;;;15.60;99.90;;;;;;2082869;28;20025;-72
2023/09/11 04:00:10;;;;;;;25.60;18.75;;;15.60;99.90;;;;;;2082440;28;20402;-71
2023/09/11 04:01:12;;;;;;;24.13;18.77;;;15.60;99.90;;;;;;2093494;28;20457;-70
2023/09/11 04:02:13;;;;;;;23.42;19.50;;;15.60;99.90;;;;;;2084906;28;20033;-71
2023/09/11 04:03:14;;;;;;;25.88;18.85;;;15.60;99.90;;;;;;2089983;28;20471;-70
2023/09/11 04:04:14;;;;;;;21.77;18.60;;;15.60;99.90;;;;;;2091806;28;20036;-71
2023/09/11 04:05:15;;;;;;;25.20;19.38;;;15.60;99.90;;;;;;2091170;28;20107;-71
2023/09/11 04:06:16;;;;;;;24.58;19.30;;;15.50;99.90;;;;;;2095151;28;20539;-71
2023/09/11 04:07:16;;;;;;;24.65;18.58;;;15.60;99.90;;;;;;2090398;28;20093;-70
2023/09/11 04:08:17;;;;;;;24.63;18.73;;;15.50;99.90;;;;;;2083263;28;20202;-71
2023/09/11 04:09:17;;;;;;;24.23;18.50;;;15.50;99.90;;;;;;2084557;28;20460;-70
2023/09/11 04:10:18;;;;;;;24.15;19.92;;;15.50;99.90;;;;;;2082330;28;20029;-71
2023/09/11 04:11:19;;;;;;;27.80;19.80;;;15.60;99.90;;;;;;2086742;28;20029;-69
2023/09/11 04:12:20;;;;;;;24.55;19.83;;;15.50;99.90;;;;;;2090140;28;20112;-69
2023/09/11 04:13:20;;;;;;;26.98;19.52;;;15.50;99.90;;;;;;2090543;28;20492;-70
2023/09/11 04:14:21;;;;;;;24.02;19.80;;;15.60;99.90;;;;;;2087362;28;20482;-70
2023/09/11 04:15:22;;;;;;;23.27;19.85;;;15.50;99.90;;;;;;2090135;28;20103;-70
2023/09/11 04:16:23;;;;;;;27.40;20.63;;;15.50;99.90;;;;;;2083094;28;20023;-70
2023/09/11 04:17:23;;;;;;;24.85;20.00;;;15.50;99.90;;;;;;2090158;28;20420;-70
2023/09/11 04:18:24;;;;;;;23.35;18.92;;;15.50;99.90;;;;;;2077240;28;20028;-70
2023/09/11 04:19:24;;;;;;;28.02;19.38;;;15.50;99.90;;;;;;2073292;28;20032;-71
2023/09/11 04:20:26;;;;;;;23.35;19.40;;;15.50;99.90;;;;;;2080647;28;20673;-71
2023/09/11 04:21:27;;;;;;;25.63;19.83;;;15.50;99.90;;;;;;2088023;28;20028;-70
2023/09/11 04:22:28;;;;;;;22.80;19.33;;;15.50;99.90;;;;;;2090118;28;20021;-70
2023/09/11 04:23:29;;;;;;;22.92;18.92;;;15.50;99.90;;;;;;2091304;28;20023;-70
2023/09/11 04:24:31;;;;;;;23.55;19.88;;;15.50;99.90;;;;;;2076986;28;20021;-70
2023/09/11 04:25:33;;;;;;;23.02;19.52;;;15.50;99.90;;;;;;2091606;28;20028;-71
2023/09/11 04:26:33;;;;;;;22.42;19.85;;;15.50;99.90;;;;;;2087777;28;20399;-70
2023/09/11 04:27:34;;;;;;;24.50;19.70;;;15.50;99.90;;;;;;2087138;28;20029;-71
2023/09/11 04:28:35;;;;;;;23.52;19.63;;;15.40;99.90;;;;;;2090832;28;20429;-70
2023/09/11 04:29:36;;;;;;;23.83;19.88;;;15.50;99.90;;;;;;2083521;28;20079;-70
2023/09/11 04:30:37;;;;;;;24.98;20.00;;;15.40;99.90;;;;;;2081161;28;20106;-71
2023/09/11 04:31:38;;;;;;;23.63;19.38;;;15.50;99.90;;;;;;2089916;28;20019;-71
2023/09/11 04:32:39;;;;;;;22.55;18.85;;;15.40;99.90;;;;;;2087328;28;20272;-70
2023/09/11 04:33:40;;;;;;;22.10;19.40;;;15.40;99.90;;;;;;2082648;28;20028;-70
2023/09/11 04:34:40;;;;;;;25.40;19.33;;;15.40;99.90;;;;;;2090026;28;20056;-69
2023/09/11 04:35:41;;;;;;;24.40;19.60;;;15.40;99.90;;;;;;2093667;28;20029;-70
2023/09/11 04:36:42;;;;;;;21.92;19.60;;;15.50;99.90;;;;;;2089863;28;20029;-70
2023/09/11 04:37:42;;;;;;;27.52;19.88;;;15.50;99.90;;;;;;2080264;28;20029;-70
2023/09/11 04:38:43;;;;;;;22.00;19.15;;;15.50;99.90;;;;;;2071036;28;20092;-71
2023/09/11 04:39:44;;;;;;;24.75;19.55;;;15.50;99.90;;;;;;2073877;28;20377;-70
2023/09/11 04:40:44;;;;;;;23.55;19.40;;;15.50;99.90;;;;;;2077696;28;20025;-70
2023/09/11 04:41:45;;;;;;;24.20;19.27;;;15.50;99.90;;;;;;2092659;28;20043;-70
2023/09/11 04:42:47;;;;;;;26.85;19.63;;;15.50;99.90;;;;;;2092093;28;20499;-71
2023/09/11 04:43:47;;;;;;;31.63;20.27;;;15.50;99.90;;;;;;2085348;28;20039;-70
2023/09/11 04:44:48;;;;;;;24.55;19.60;;;15.50;99.90;;;;;;2090249;28;20021;-70
2023/09/11 04:45:49;;;;;;;22.92;19.02;;;15.50;99.90;;;;;;2091635;28;20021;-71
2023/09/11 04:46:50;;;;;;;27.55;19.85;;;15.50;99.90;;;;;;2088614;28;20025;-71
2023/09/11 04:47:51;;;;;;;26.67;19.45;;;15.50;99.90;;;;;;2087510;28;20062;-70
2023/09/11 04:48:51;;;;;;;22.67;18.92;;;15.50;99.90;;;;;;2086137;28;20021;-70
2023/09/11 04:49:52;;;;;;;23.08;18.70;;;15.50;99.90;;;;;;2078367;28;20033;-69
2023/09/11 04:50:53;;;;;;;24.20;18.92;;;15.50;99.90;;;;;;2079826;28;20096;-69
2023/09/11 04:51:54;;;;;;;25.10;19.42;;;15.50;99.90;;;;;;2087745;28;20021;-73
2023/09/11 04:52:56;;;;;;;26.92;19.15;;;15.50;99.90;;;;;;2092263;28;20313;-72
2023/09/11 04:53:56;;;;;;;26.55;19.73;;;15.50;99.90;;;;;;2090673;28;20025;-72
2023/09/11 04:54:57;;;;;;;27.02;19.52;;;15.50;99.90;;;;;;2084896;28;20017;-73
2023/09/11 04:55:58;;;;;;;28.42;19.80;;;15.50;99.90;;;;;;2086155;28;20434;-72
2023/09/11 04:56:58;;;;;;;29.08;19.98;;;15.50;99.90;;;;;;2088703;28;20025;-72
2023/09/11 04:57:59;;;;;;;26.70;19.48;;;15.50;99.90;;;;;;2092739;28;20021;-72
2023/09/11 04:59:00;;;;;;;26.90;19.73;;;15.60;99.90;;;;;;2090306;28;20102;-72
2023/09/11 05:00:01;;;;;;;24.42;19.70;;;15.60;99.90;;;;;;2084960;28;20487;-72
2023/09/11 05:01:02;;;;;;;23.23;18.85;;;15.60;99.90;;;;;;2086870;28;20108;-74
2023/09/11 05:02:04;;;;;;;27.80;19.60;;;15.60;99.90;;;;;;2086516;28;20487;-74
2023/09/11 05:03:04;;;;;;;27.95;19.92;;;15.60;99.90;;;;;;2079129;28;20022;-73
2023/09/11 05:04:06;;;;;;;28.70;18.92;;;15.60;99.90;;;;;;2082198;28;20029;-74
2023/09/11 05:05:07;;;;;;;24.75;19.13;;;15.60;99.90;;;;;;2077689;28;20041;-73
2023/09/11 05:06:07;;;;;;;22.98;18.88;;;15.60;99.90;;;;;;2085749;28;20473;-74
2023/09/11 05:07:08;;;;;;;26.35;19.77;;;15.60;99.90;;;;;;2086070;28;20039;-74
2023/09/11 05:08:09;;;;;;;29.08;19.55;;;15.60;99.90;;;;;;2087669;28;20021;-74
2023/09/11 05:09:09;;;;;;;29.58;19.83;;;15.60;99.90;;;;;;2091795;28;20024;-73
2023/09/11 05:10:14;;;;;;;27.73;19.85;;;15.70;99.90;;;;;;2080806;28;20512;-74
2023/09/11 05:11:14;;;;;;;27.42;20.15;;;15.70;99.90;;;;;;2081828;28;20435;-73
2023/09/11 05:12:15;;;;;;;27.50;19.00;;;15.80;99.90;;;;;;2097420;28;20127;-74
2023/09/11 05:13:16;;;;;;;25.42;19.08;;;15.80;99.90;;;;;;2086287;28;20456;-74